EST,Max TemperatureF,Mean TemperatureF,Min TemperatureF,Max Dew PointF,MeanDew PointF,Min DewpointF,Max Humidity, Mean Humidity, Min Humidity, Max Sea Level PressureIn, Mean Sea Level PressureIn, Min Sea Level PressureIn, Max VisibilityMiles, Mean VisibilityMiles, Min VisibilityMiles, Max Wind SpeedMPH, Mean Wind SpeedMPH, Max Gust SpeedMPH,PrecipitationIn, CloudCover, Events, WindDirDegrees
2012-12-1,61,48,35,45,38,33,94,81,55,30.28,30.22,30.17,10,9,7,13,5,,0.00,2,,162
2012-12-2,55,52,50,55,47,43,100,79,67,30.17,30.11,30.06,10,9,2,18,11,24,0.00,7,Rain,191
2012-12-3,63,58,53,61,55,51,100,96,88,30.18,30.13,30.09,10,6,0,9,5,,0.01,5,Fog-Rain,169
2012-12-4,62,50,38,59,49,38,100,85,77,30.18,30.10,30.00,10,9,2,18,10,24,0.00,6,Rain,202
2012-12-5,40,34,28,40,31,23,100,86,65,30.36,30.29,30.18,10,8,2,12,6,16,0.00,0,,306
2012-12-6,44,35,26,40,28,21,91,79,61,30.33,30.18,29.99,10,10,10,10,5,,0.01,2,,102
2012-12-7,51,46,41,50,46,40,100,99,93,30.01,29.94,29.84,10,3,0,7,2,,0.32,8,Fog-Rain,157
2012-12-8,53,47,41,52,47,40,100,96,82,30.06,29.91,29.82,10,5,2,12,7,17,0.01,7,Rain,238
2012-12-9,56,48,39,56,44,36,100,93,85,30.08,29.93,29.69,10,8,2,13,8,18,0.00,8,Rain-Thunderstorm,94
2012-12-10,54,44,32,54,42,30,100,94,87,29.89,29.73,29.65,10,7,2,16,11,21,0.00,8,Rain,261
2012-12-11,34,29,24,31,28,21,96,87,64,30.23,30.05,29.90,10,8,3,10,8,,0.00,6,Snow,256
2012-12-12,39,30,21,27,23,19,100,87,61,30.40,30.34,30.24,10,9,4,7,2,,0.00,0,,172
2012-12-13,43,30,17,28,23,17,100,84,49,30.42,30.36,30.26,10,9,7,8,1,,0.00,0,,171
2012-12-14,50,38,26,34,27,23,93,77,47,30.29,30.24,30.19,10,10,10,8,4,,0.00,0,,183
2012-12-15,49,40,33,39,33,28,93,75,61,30.18,30.02,29.81,10,10,10,12,3,,0.00,4,,144
2012-12-16,60,53,46,52,47,39,100,85,72,29.81,29.74,29.67,10,10,2,15,10,21,0.00,6,,187
2012-12-17,50,44,38,48,43,39,100,99,87,29.75,29.67,29.56,10,3,0,10,2,,0.00,7,Fog-Rain-Thunderstorm,314
2012-12-18,42,38,35,40,36,32,98,91,66,29.84,29.71,29.48,10,7,3,14,9,17,0.00,8,Rain,261
2012-12-19,44,40,35,37,36,33,93,84,71,30.10,29.95,29.75,10,8,5,14,9,18,0.00,5,,224
2012-12-20,48,41,33,46,36,27,100,82,70,30.03,29.65,29.28,10,9,2,33,12,48,0.00,5,Rain-Snow,140
2012-12-21,32,30,28,28,27,25,93,84,76,29.92,29.60,29.43,10,7,1,29,24,41,0.01,8,Snow,249
2012-12-22,31,26,22,26,22,19,87,81,74,30.17,30.07,29.93,10,10,10,20,13,32,0.00,5,,259
2012-12-23,40,29,19,28,22,18,93,84,61,30.06,29.98,29.92,10,10,10,8,4,,0.00,0,,184
2012-12-24,34,30,25,34,28,23,100,90,80,29.97,29.90,29.76,10,7,0,12,4,18,0.00,4,Fog-Rain,50
2012-12-25,34,32,32,32,29,25,99,87,70,30.19,30.09,29.97,10,7,2,14,7,21,0.00,8,,347
2012-12-26,33,30,27,30,27,24,100,87,75,30.06,29.80,29.55,10,7,0,21,14,29,0.00,8,Snow,19
2012-12-27,29,24,22,24,23,21,96,89,80,30.16,30.00,29.81,10,8,5,15,13,23,0.00,8,,288
2012-12-28,32,26,23,27,25,23,98,93,86,30.16,30.06,29.85,10,6,2,8,3,,0.00,8,,87
2012-12-29,30,28,26,29,26,22,99,93,84,30.11,29.84,29.70,10,4,0,17,6,25,0.00,8,Snow,322
2012-12-30,26,22,17,22,19,16,95,85,74,30.40,30.29,30.11,10,9,7,15,12,24,0.00,5,,238
2012-12-31,33,24,16,32,23,15,100,91,70,30.32,30.17,30.04,10,7,1,18,7,24,0.00,4,Snow,196